createdAt,value
2023-09-10T00:01:35.018Z,18.30
2023-09-10T00:04:03.765Z,18.20
2023-09-10T00:06:33.501Z,18.20
2023-09-10T00:09:02.084Z,18.20
2023-09-10T00:11:30.743Z,18.10
2023-09-10T00:13:59.352Z,18.10
2023-09-10T00:16:27.984Z,18.10
2023-09-10T00:18:56.783Z,18.10
2023-09-10T00:21:25.365Z,18.10
2023-09-10T00:23:53.983Z,18.00
2023-09-10T00:26:22.563Z,18.00
2023-09-10T00:28:52.839Z,18.00
2023-09-10T00:31:21.602Z,17.90
2023-09-10T00:33:50.246Z,17.90
2023-09-10T00:36:18.894Z,17.90
2023-09-10T00:38:47.659Z,17.90
2023-09-10T00:41:16.324Z,17.90
2023-09-10T00:43:44.908Z,17.80
2023-09-10T00:46:13.634Z,17.80
2023-09-10T00:48:42.592Z,17.80
2023-09-10T00:51:13.090Z,17.80
2023-09-10T00:53:42.909Z,17.80
2023-09-10T00:56:12.539Z,17.70
2023-09-10T00:58:41.678Z,17.70
2023-09-10T01:01:10.912Z,17.70
2023-09-10T01:03:40.634Z,17.70
2023-09-10T01:06:09.161Z,17.70
2023-09-10T01:08:38.400Z,17.70
2023-09-10T01:11:09.842Z,17.60
2023-09-10T01:14:14.052Z,17.60
2023-09-10T01:16:46.981Z,17.60
2023-09-10T01:19:20.239Z,17.60
2023-09-10T01:21:59.510Z,17.50
2023-09-10T01:24:46.242Z,17.50
2023-09-10T01:27:15.958Z,17.50
2023-09-10T01:29:44.750Z,17.50
2023-09-10T01:32:14.933Z,17.50
2023-09-10T01:34:45.204Z,17.40
2023-09-10T01:37:18.276Z,17.40
2023-09-10T01:39:47.984Z,17.40
2023-09-10T01:42:17.430Z,17.40
2023-09-10T01:44:47.084Z,17.30
2023-09-10T01:47:15.729Z,17.30
2023-09-10T01:49:44.466Z,17.30
2023-09-10T01:52:13.070Z,17.30
2023-09-10T01:54:42.199Z,17.30
2023-09-10T01:57:10.923Z,17.30
2023-09-10T01:59:39.486Z,17.20
2023-09-10T02:02:08.170Z,17.20
2023-09-10T02:04:36.796Z,17.20
2023-09-10T02:07:05.497Z,17.20
2023-09-10T02:09:34.134Z,17.20
2023-09-10T02:12:02.744Z,17.20
2023-09-10T02:14:31.451Z,17.10
2023-09-10T02:17:00.140Z,17.10
2023-09-10T02:19:28.870Z,17.10
2023-09-10T02:21:58.448Z,17.10
2023-09-10T02:24:27.034Z,17.10
2023-09-10T02:26:55.686Z,17.00
2023-09-10T02:29:24.248Z,17.00
2023-09-10T02:31:53.145Z,17.00
2023-09-10T02:34:21.950Z,17.00
2023-09-10T02:36:50.628Z,16.90
2023-09-10T02:39:19.217Z,16.90
2023-09-10T02:41:49.444Z,16.90
2023-09-10T02:44:18.115Z,16.90
2023-09-10T02:46:46.776Z,16.90
2023-09-10T02:49:15.464Z,16.90
2023-09-10T02:51:44.106Z,16.90
2023-09-10T02:54:12.693Z,16.80
2023-09-10T02:56:41.355Z,16.80
2023-09-10T02:59:11.628Z,16.80
2023-09-10T03:01:40.250Z,16.80
2023-09-10T03:04:08.957Z,16.70
2023-09-10T03:06:37.671Z,16.70
2023-09-10T03:09:06.869Z,16.70
2023-09-10T03:11:37.601Z,16.70
2023-09-10T03:14:06.998Z,16.70
2023-09-10T03:16:36.686Z,16.70
2023-09-10T03:19:05.530Z,16.70
2023-09-10T03:21:34.268Z,16.70
2023-09-10T03:24:03.009Z,16.60
2023-09-10T03:26:31.780Z,16.60
2023-09-10T03:29:00.578Z,16.60
2023-09-10T03:31:30.058Z,16.60
2023-09-10T03:33:58.766Z,16.60
2023-09-10T03:36:27.740Z,16.60
2023-09-10T03:38:56.440Z,16.60
2023-09-10T03:41:25.021Z,16.60
2023-09-10T03:43:54.690Z,16.50
2023-09-10T03:46:24.521Z,16.50
2023-09-10T03:48:53.261Z,16.50
2023-09-10T03:51:21.964Z,16.50
2023-09-10T03:53:50.547Z,16.50
2023-09-10T03:56:19.298Z,16.50
2023-09-10T03:58:47.896Z,16.40
2023-09-10T04:01:16.723Z,16.40
2023-09-10T04:03:45.456Z,16.40
2023-09-10T04:06:14.035Z,16.40
2023-09-10T04:08:42.692Z,16.40
2023-09-10T04:11:11.331Z,16.30
2023-09-10T04:13:40.319Z,16.30
2023-09-10T04:16:08.951Z,16.30
2023-09-10T04:18:37.718Z,16.30
2023-09-10T04:21:07.288Z,16.30
2023-09-10T04:23:37.574Z,16.30
2023-09-10T04:26:06.402Z,16.20
2023-09-10T04:28:35.266Z,16.30
2023-09-10T04:31:03.993Z,16.20
2023-09-10T04:33:32.677Z,16.20
2023-09-10T04:36:02.397Z,16.20
2023-09-10T04:38:30.984Z,16.20
2023-09-10T04:41:01.488Z,16.20
2023-09-10T04:43:30.428Z,16.20
2023-09-10T04:45:59.992Z,16.20
2023-09-10T04:48:29.003Z,16.20
2023-09-10T04:50:57.661Z,16.20
2023-09-10T04:53:26.333Z,16.20
2023-09-10T04:55:55.584Z,16.20
2023-09-10T04:58:26.991Z,16.20
2023-09-10T05:00:57.223Z,16.20
2023-09-10T05:03:26.102Z,16.10
2023-09-10T05:05:59.526Z,16.10
2023-09-10T05:08:28.911Z,16.10
2023-09-10T05:10:57.649Z,16.10
2023-09-10T05:13:26.550Z,16.10
2023-09-10T05:15:56.131Z,16.10
2023-09-10T05:18:26.456Z,16.20
2023-09-10T05:20:56.295Z,16.20
2023-09-10T05:23:28.676Z,16.20
2023-09-10T05:25:58.078Z,16.20
2023-09-10T05:28:26.825Z,16.20
2023-09-10T05:30:55.491Z,16.20
2023-09-10T05:33:25.064Z,16.30
2023-09-10T05:35:57.334Z,16.30
2023-09-10T05:38:27.299Z,16.30
2023-09-10T05:40:56.071Z,16.40
2023-09-10T05:43:24.983Z,16.40
2023-09-10T05:45:55.206Z,16.40
2023-09-10T05:48:24.362Z,16.50
2023-09-10T05:50:54.586Z,16.50
2023-09-10T05:53:23.342Z,16.50
2023-09-10T05:55:52.145Z,16.60
2023-09-10T05:58:22.116Z,16.60
2023-09-10T06:00:53.321Z,16.70
2023-09-10T06:03:22.147Z,16.80
2023-09-10T06:05:51.115Z,16.80
2023-09-10T06:08:19.939Z,16.80
2023-09-10T06:10:48.601Z,16.90
2023-09-10T06:13:17.336Z,17.00
2023-09-10T06:15:45.993Z,17.00
2023-09-10T06:18:14.707Z,17.10
2023-09-10T06:20:43.334Z,17.10
2023-09-10T06:23:12.097Z,17.20
2023-09-10T06:25:40.914Z,17.30
2023-09-10T06:28:09.642Z,17.40
2023-09-10T06:30:39.635Z,17.40
2023-09-10T06:33:08.547Z,17.50
2023-09-10T06:35:37.310Z,17.60
2023-09-10T06:38:06.012Z,17.70
2023-09-10T06:40:37.103Z,17.80
2023-09-10T06:43:07.342Z,17.90
2023-09-10T06:45:42.175Z,18.00
2023-09-10T06:48:11.171Z,18.10
2023-09-10T06:50:39.811Z,18.20
2023-09-10T06:53:08.516Z,18.30
2023-09-10T06:55:37.095Z,18.40
2023-09-10T06:58:05.684Z,18.50
2023-09-10T07:00:35.950Z,18.70
2023-09-10T07:03:06.371Z,18.80
2023-09-10T07:05:35.174Z,19.00
2023-09-10T07:08:04.085Z,19.10
2023-09-10T07:10:32.831Z,19.20
2023-09-10T07:13:03.031Z,19.40
2023-09-10T07:15:31.682Z,19.60
2023-09-10T07:18:00.369Z,19.80
2023-09-10T07:20:29.028Z,19.90
2023-09-10T07:22:57.703Z,20.10
2023-09-10T07:25:28.808Z,20.30
2023-09-10T07:27:56.560Z,20.40
2023-09-10T07:30:25.500Z,20.60
2023-09-10T07:32:54.232Z,20.80
2023-09-10T07:35:22.797Z,21.00
2023-09-10T07:37:53.111Z,21.10
2023-09-10T07:40:21.965Z,21.30
2023-09-10T07:42:51.296Z,21.50
2023-09-10T07:45:19.919Z,21.60
2023-09-10T07:47:48.898Z,21.80
2023-09-10T07:50:17.810Z,22.00
2023-09-10T07:52:46.626Z,22.10
2023-09-10T07:55:15.359Z,22.30
2023-09-10T07:57:44.216Z,22.40
2023-09-10T08:00:13.408Z,22.60
2023-09-10T08:02:42.057Z,22.70
2023-09-10T08:05:10.720Z,22.80
2023-09-10T08:07:39.307Z,23.00
2023-09-10T08:10:08.134Z,23.10
2023-09-10T08:12:36.822Z,23.30
2023-09-10T08:15:05.735Z,23.40
2023-09-10T08:17:36.717Z,23.60
2023-09-10T08:20:07.395Z,23.70
2023-09-10T08:22:36.189Z,23.90
2023-09-10T08:25:05.762Z,24.00
2023-09-10T08:27:36.107Z,24.10
2023-09-10T08:30:06.738Z,24.20
2023-09-10T08:32:35.736Z,24.30
2023-09-10T08:35:05.229Z,24.50
2023-09-10T08:37:33.829Z,24.50
2023-09-10T08:40:02.480Z,24.60
2023-09-10T08:42:47.945Z,24.70
2023-09-10T08:45:16.674Z,24.80
2023-09-10T08:47:46.342Z,24.90
2023-09-10T08:50:15.832Z,25.00
2023-09-10T08:52:45.959Z,25.00
2023-09-10T08:55:14.771Z,25.00
2023-09-10T08:57:45.295Z,25.10
2023-09-10T09:00:14.350Z,25.20
2023-09-10T09:02:43.784Z,25.30
2023-09-10T09:05:12.743Z,25.40
2023-09-10T09:07:56.345Z,25.40
2023-09-10T09:10:28.304Z,25.50
2023-09-10T09:13:00.910Z,25.60
2023-09-10T09:15:30.395Z,25.70
2023-09-10T09:18:00.138Z,25.80
2023-09-10T09:20:30.419Z,26.00
2023-09-10T09:23:01.010Z,26.00
2023-09-10T09:25:30.987Z,26.10
2023-09-10T09:28:00.070Z,26.10
2023-09-10T09:30:28.683Z,26.10
2023-09-10T09:32:58.011Z,26.20
2023-09-10T09:35:26.701Z,26.20
2023-09-10T09:37:55.531Z,26.20
2023-09-10T09:40:30.937Z,26.30
2023-09-10T09:43:13.137Z,26.50
2023-09-10T09:45:31.442Z,26.90
2023-09-10T09:48:00.201Z,27.20
2023-09-10T09:50:29.091Z,27.60
2023-09-10T09:52:57.899Z,27.90
2023-09-10T09:55:27.307Z,28.10
2023-09-10T09:57:55.906Z,28.30
2023-09-10T10:00:24.539Z,28.60
2023-09-10T10:02:54.007Z,28.80
2023-09-10T10:05:22.739Z,29.00
2023-09-10T10:07:52.772Z,29.30
2023-09-10T10:10:21.651Z,29.50
2023-09-10T10:12:52.019Z,29.90
2023-09-10T10:15:21.515Z,30.40
2023-09-10T10:17:51.099Z,31.40
2023-09-10T10:20:20.648Z,32.80
2023-09-10T10:22:50.467Z,34.10
2023-09-10T10:25:19.100Z,35.40
2023-09-10T10:27:48.383Z,36.50
2023-09-10T10:30:17.049Z,37.60
2023-09-10T10:32:47.044Z,38.40
2023-09-10T10:35:15.859Z,38.60
2023-09-10T10:37:54.849Z,38.20
2023-09-10T10:40:24.968Z,36.20
2023-09-10T10:43:01.364Z,34.40
2023-09-10T10:45:31.485Z,33.30
2023-09-10T10:48:01.626Z,32.60
2023-09-10T10:50:32.153Z,32.00
2023-09-10T10:53:03.146Z,31.50
2023-09-10T10:55:33.636Z,30.90
2023-09-10T10:58:02.800Z,30.60
2023-09-10T11:00:33.220Z,30.30
2023-09-10T11:03:11.428Z,30.10
2023-09-10T11:05:54.038Z,29.90
2023-09-10T11:08:30.332Z,29.60
2023-09-10T11:10:59.557Z,29.30
2023-09-10T11:13:28.260Z,29.10
2023-09-10T11:16:07.626Z,28.90
2023-09-10T11:18:42.259Z,28.80
2023-09-10T11:21:11.844Z,28.70
2023-09-10T11:23:41.642Z,28.60
2023-09-10T11:26:12.229Z,28.40
2023-09-10T11:28:42.460Z,28.30
2023-09-10T11:31:29.465Z,28.30
2023-09-10T11:33:59.196Z,28.20
2023-09-10T11:36:29.304Z,28.20
2023-09-10T11:38:57.891Z,28.10
2023-09-10T11:41:26.734Z,28.00
2023-09-10T11:43:56.334Z,28.00
2023-09-10T11:46:24.949Z,27.80
2023-09-10T11:48:53.533Z,27.70
2023-09-10T11:51:22.165Z,27.60
2023-09-10T11:53:50.828Z,27.60
2023-09-10T11:56:19.547Z,27.40
2023-09-10T11:58:48.261Z,27.30
2023-09-10T12:01:17.140Z,27.30
2023-09-10T12:03:46.445Z,27.20
2023-09-10T12:06:16.331Z,27.20
2023-09-10T12:08:45.227Z,27.20
2023-09-10T12:11:15.397Z,27.10
2023-09-10T12:13:44.350Z,27.10
2023-09-10T12:16:14.162Z,27.00
2023-09-10T12:18:43.286Z,27.00
2023-09-10T12:21:13.656Z,26.90
2023-09-10T12:23:43.139Z,26.90
2023-09-10T12:26:13.034Z,26.90
2023-09-10T12:28:42.100Z,26.80
2023-09-10T12:31:12.364Z,26.70
2023-09-10T12:33:42.529Z,26.70
2023-09-10T12:36:11.462Z,26.60
2023-09-10T12:38:40.372Z,26.60
2023-09-10T12:41:09.531Z,26.50
2023-09-10T12:43:38.166Z,26.40
2023-09-10T12:46:06.761Z,26.30
2023-09-10T12:48:36.285Z,26.30
2023-09-10T12:51:04.917Z,26.30
2023-09-10T12:53:35.426Z,26.30
2023-09-10T12:56:04.279Z,26.20
2023-09-10T12:58:33.025Z,26.20
2023-09-10T13:01:01.760Z,26.20
2023-09-10T13:03:30.574Z,26.10
2023-09-10T13:05:59.377Z,26.10
2023-09-10T13:08:28.352Z,26.10
2023-09-10T13:10:59.838Z,26.10
2023-09-10T13:13:28.403Z,26.00
2023-09-10T13:15:57.893Z,26.00
2023-09-10T13:18:26.668Z,25.90
2023-09-10T13:20:55.367Z,25.90
2023-09-10T13:23:24.157Z,25.90
2023-09-10T13:25:52.847Z,25.90
2023-09-10T13:28:21.454Z,25.90
2023-09-10T13:30:50.073Z,25.80
2023-09-10T13:33:18.725Z,25.80
2023-09-10T13:35:47.290Z,25.80
2023-09-10T13:38:16.442Z,25.80
2023-09-10T13:40:45.264Z,25.70
2023-09-10T13:43:13.842Z,25.70
2023-09-10T13:45:42.633Z,25.70
2023-09-10T13:48:11.347Z,25.70
2023-09-10T13:50:40.060Z,25.70
2023-09-10T13:53:08.618Z,25.70
2023-09-10T13:55:37.220Z,25.70
2023-09-10T13:58:05.881Z,25.70
2023-09-10T14:00:34.830Z,25.70
2023-09-10T14:03:03.564Z,25.70
2023-09-10T14:05:32.373Z,25.70
2023-09-10T14:08:01.179Z,25.70
2023-09-10T14:10:29.983Z,25.70
2023-09-10T14:12:58.598Z,25.60
2023-09-10T14:15:27.266Z,25.70
2023-09-10T14:17:56.023Z,25.60
2023-09-10T14:20:24.686Z,25.60
2023-09-10T14:22:53.533Z,25.50
2023-09-10T14:25:23.695Z,25.50
2023-09-10T14:27:53.269Z,25.50
2023-09-10T14:30:22.144Z,25.50
2023-09-10T14:32:50.928Z,25.50
2023-09-10T14:35:19.605Z,25.40
2023-09-10T14:37:48.177Z,25.40
2023-09-10T14:40:18.647Z,25.40
2023-09-10T14:42:47.438Z,25.40
2023-09-10T14:45:16.073Z,25.40
2023-09-10T14:47:44.838Z,25.40
2023-09-10T14:50:13.939Z,25.40
2023-09-10T14:52:42.750Z,25.30
2023-09-10T14:55:11.701Z,25.30
2023-09-10T14:57:40.702Z,25.30
2023-09-10T15:00:30.532Z,25.20
2023-09-10T15:02:59.314Z,25.20
2023-09-10T15:05:28.119Z,25.10
2023-09-10T15:07:56.778Z,25.10
2023-09-10T15:10:25.553Z,25.00
2023-09-10T15:12:54.673Z,24.90
2023-09-10T15:15:23.285Z,24.90
2023-09-10T15:17:52.003Z,24.90
2023-09-10T15:20:20.759Z,24.80
2023-09-10T15:22:49.490Z,24.80
2023-09-10T15:25:18.186Z,24.70
2023-09-10T15:27:46.762Z,24.70
2023-09-10T15:30:15.466Z,24.60
2023-09-10T15:32:45.942Z,24.50
2023-09-10T15:35:14.324Z,24.50
2023-09-10T15:37:42.875Z,24.50
2023-09-10T15:40:11.639Z,24.40
2023-09-10T15:42:40.369Z,24.30
2023-09-10T15:45:09.763Z,24.30
2023-09-10T15:47:38.568Z,24.30
2023-09-10T15:50:08.048Z,24.20
2023-09-10T15:52:36.777Z,24.20
2023-09-10T15:55:05.583Z,24.10
2023-09-10T15:57:34.197Z,24.00
2023-09-10T16:00:04.218Z,24.00
2023-09-10T16:02:36.389Z,23.90
2023-09-10T16:05:06.996Z,23.80
2023-09-10T16:07:35.939Z,23.80
2023-09-10T16:10:04.796Z,23.70
2023-09-10T16:12:33.752Z,23.70
2023-09-10T16:15:02.539Z,23.60
2023-09-10T16:17:31.123Z,23.50
2023-09-10T16:19:59.782Z,23.50
2023-09-10T16:22:33.849Z,23.40
2023-09-10T16:25:03.330Z,23.40
2023-09-10T16:27:31.973Z,23.30
2023-09-10T16:30:01.234Z,23.30
2023-09-10T16:32:29.859Z,23.30
2023-09-10T16:34:58.474Z,23.20
2023-09-10T16:37:27.138Z,23.10
2023-09-10T16:39:55.840Z,23.10
2023-09-10T16:42:24.475Z,23.00
2023-09-10T16:44:53.071Z,23.00
2023-09-10T16:47:21.785Z,22.90
2023-09-10T16:49:50.418Z,22.90
2023-09-10T16:52:19.012Z,22.80
2023-09-10T16:54:47.592Z,22.70
2023-09-10T16:57:16.336Z,22.60
2023-09-10T16:59:48.255Z,22.50
2023-09-10T17:02:16.964Z,22.40
2023-09-10T17:04:45.597Z,22.40
2023-09-10T17:07:14.288Z,22.30
2023-09-10T17:09:42.939Z,22.30
2023-09-10T17:12:11.692Z,22.20
2023-09-10T17:14:40.293Z,22.10
2023-09-10T17:17:11.060Z,22.00
2023-09-10T17:19:39.710Z,22.00
2023-09-10T17:22:08.355Z,21.90
2023-09-10T17:24:38.439Z,21.80
2023-09-10T17:27:07.072Z,21.80
2023-09-10T17:29:35.927Z,21.70
2023-09-10T17:32:04.897Z,21.60
2023-09-10T17:34:33.506Z,21.50
2023-09-10T17:37:02.258Z,21.50
2023-09-10T17:39:30.855Z,21.50
2023-09-10T17:41:59.452Z,21.40
2023-09-10T17:44:28.177Z,21.30
2023-09-10T17:46:58.454Z,21.20
2023-09-10T17:49:27.135Z,21.20
2023-09-10T17:51:55.844Z,21.10
2023-09-10T17:54:24.534Z,21.00
2023-09-10T17:56:53.160Z,21.00
2023-09-10T17:59:21.956Z,20.90
2023-09-10T18:01:50.642Z,20.90
2023-09-10T18:04:20.988Z,20.80
2023-09-10T18:06:50.028Z,20.80
2023-09-10T18:09:20.438Z,20.70
2023-09-10T18:11:49.163Z,20.70
2023-09-10T18:14:17.899Z,20.60
2023-09-10T18:16:46.440Z,20.60
2023-09-10T18:19:15.017Z,20.50
2023-09-10T18:21:43.703Z,20.50
2023-09-10T18:24:13.182Z,20.40
2023-09-10T18:26:41.850Z,20.30
2023-09-10T18:29:10.646Z,20.30
2023-09-10T18:31:39.411Z,20.20
2023-09-10T18:34:07.940Z,20.20
2023-09-10T18:36:36.613Z,20.20
2023-09-10T18:39:05.354Z,20.10
2023-09-10T18:41:34.092Z,20.10
2023-09-10T18:44:02.933Z,20.00
2023-09-10T18:46:31.594Z,20.00
2023-09-10T18:49:00.359Z,19.90
2023-09-10T18:51:29.017Z,19.80
2023-09-10T18:53:57.676Z,19.80
2023-09-10T18:56:26.481Z,19.70
2023-09-10T18:58:55.241Z,19.60
2023-09-10T19:01:23.881Z,19.50
2023-09-10T19:03:52.574Z,19.50
2023-09-10T19:06:21.218Z,19.50
2023-09-10T19:08:49.900Z,19.50
2023-09-10T19:11:18.472Z,19.50
2023-09-10T19:13:47.024Z,19.40
2023-09-10T19:16:15.708Z,19.40
2023-09-10T19:18:44.278Z,19.30
2023-09-10T19:21:12.913Z,19.30
2023-09-10T19:23:41.777Z,19.20
2023-09-10T19:26:13.856Z,19.20
2023-09-10T19:28:42.497Z,19.20
2023-09-10T19:31:11.530Z,19.10
2023-09-10T19:33:40.535Z,19.10
2023-09-10T19:36:10.703Z,19.00
2023-09-10T19:38:39.408Z,19.00
2023-09-10T19:41:08.157Z,19.00
2023-09-10T19:43:36.822Z,18.90
2023-09-10T19:46:05.612Z,18.90
2023-09-10T19:48:34.336Z,18.90
2023-09-10T19:51:05.577Z,18.80
2023-09-10T19:53:34.753Z,18.80
2023-09-10T19:56:11.698Z,18.70
2023-09-10T19:58:41.378Z,18.60
2023-09-10T20:01:10.182Z,18.60
2023-09-10T20:03:39.287Z,18.60
2023-09-10T20:06:08.293Z,18.60
2023-09-10T20:08:36.982Z,18.50
2023-09-10T20:11:05.518Z,18.50
2023-09-10T20:13:34.161Z,18.60
2023-09-10T20:16:02.752Z,18.60
2023-09-10T20:18:31.345Z,18.60
2023-09-10T20:20:59.912Z,18.60
2023-09-10T20:23:31.698Z,18.60
2023-09-10T20:26:00.454Z,18.60
2023-09-10T20:28:29.118Z,18.70
2023-09-10T20:30:57.827Z,18.70
2023-09-10T20:33:26.581Z,18.70
2023-09-10T20:35:55.275Z,18.70
2023-09-10T20:38:24.179Z,18.70
2023-09-10T20:40:52.860Z,18.70
2023-09-10T20:43:21.451Z,18.80
2023-09-10T20:45:51.707Z,18.80
2023-09-10T20:48:20.314Z,18.80
2023-09-10T20:50:48.898Z,18.80
2023-09-10T20:53:17.591Z,18.80
2023-09-10T20:55:46.181Z,18.80
2023-09-10T20:58:14.938Z,18.80
2023-09-10T21:00:43.546Z,18.80
2023-09-10T21:03:25.893Z,18.80
2023-09-10T21:05:43.355Z,18.80
2023-09-10T21:08:12.433Z,18.80
2023-09-10T21:10:41.358Z,18.80
2023-09-10T21:13:12.187Z,18.70
2023-09-10T21:15:40.861Z,18.80
2023-09-10T21:18:09.558Z,18.70
2023-09-10T21:20:38.581Z,18.70
2023-09-10T21:23:07.312Z,18.70
2023-09-10T21:25:37.621Z,18.70
2023-09-10T21:28:06.345Z,18.70
2023-09-10T21:30:35.007Z,18.70
2023-09-10T21:33:03.868Z,18.70
2023-09-10T21:35:32.750Z,18.70
2023-09-10T21:38:01.427Z,18.70
2023-09-10T21:40:30.062Z,18.60
2023-09-10T21:42:58.665Z,18.60
2023-09-10T21:45:27.250Z,18.60
2023-09-10T21:47:55.926Z,18.50
2023-09-10T21:50:24.667Z,18.50
2023-09-10T21:52:53.358Z,18.60
2023-09-10T21:55:22.101Z,18.60
2023-09-10T21:57:50.638Z,18.60
2023-09-10T22:00:19.433Z,18.60
2023-09-10T22:02:48.167Z,18.60
2023-09-10T22:05:16.923Z,18.60
2023-09-10T22:07:45.946Z,18.70
2023-09-10T22:10:14.655Z,18.70
2023-09-10T22:12:43.421Z,18.70
2023-09-10T22:15:13.584Z,18.70
2023-09-10T22:17:42.337Z,18.60
2023-09-10T22:20:12.928Z,18.70
2023-09-10T22:22:41.499Z,18.70
2023-09-10T22:25:14.856Z,18.70
2023-09-10T22:27:43.765Z,18.70
2023-09-10T22:30:12.857Z,18.60
2023-09-10T22:32:41.550Z,18.60
2023-09-10T22:35:10.308Z,18.60
2023-09-10T22:37:38.955Z,18.60
2023-09-10T22:40:08.028Z,18.60
2023-09-10T22:42:36.844Z,18.60
2023-09-10T22:45:06.252Z,18.60
2023-09-10T22:47:35.294Z,18.70
2023-09-10T22:50:05.151Z,18.70
2023-09-10T22:52:33.778Z,18.70
2023-09-10T22:55:02.361Z,18.70
2023-09-10T22:57:31.086Z,18.70
2023-09-10T22:59:59.689Z,18.70
2023-09-10T23:02:28.320Z,18.70
2023-09-10T23:04:57.123Z,18.70
2023-09-10T23:07:25.828Z,18.70
2023-09-10T23:09:55.378Z,18.70
2023-09-10T23:12:28.212Z,18.70
2023-09-10T23:14:57.241Z,18.70
2023-09-10T23:17:25.864Z,18.70
2023-09-10T23:19:56.338Z,18.70
2023-09-10T23:22:25.496Z,18.70
2023-09-10T23:24:55.997Z,18.70
2023-09-10T23:27:24.624Z,18.70
2023-09-10T23:29:53.797Z,18.70
2023-09-10T23:32:22.637Z,18.70
2023-09-10T23:34:51.517Z,18.70
2023-09-10T23:37:20.111Z,18.60
2023-09-10T23:39:48.711Z,18.60
2023-09-10T23:42:17.359Z,18.60
2023-09-10T23:44:45.963Z,18.50
2023-09-10T23:47:14.685Z,18.60
2023-09-10T23:49:43.382Z,18.60
2023-09-10T23:52:11.988Z,18.60
2023-09-10T23:54:40.578Z,18.60
2023-09-10T23:57:09.167Z,18.50
2023-09-10T23:59:37.861Z,18.50
